sensor_id;sensor_type;location;lat;lon;timestamp;pressure;altitude;pressure_sealevel;temperature;humidity
20424;BME280;10371;49.042;8.002;2023-04-28T00:00:25;99631.63;;;12.72;80.04
20424;BME280;10371;49.042;8.002;2023-04-28T00:01:25;99628.19;;;12.72;79.84
20424;BME280;10371;49.042;8.002;2023-04-28T00:02:26;99628.91;;;12.74;79.63
20424;BME280;10371;49.042;8.002;2023-04-28T00:03:26;99627.91;;;12.75;78.94
20424;BME280;10371;49.042;8.002;2023-04-28T00:04:27;99626.00;;;12.77;78.74
20424;BME280;10371;49.042;8.002;2023-04-28T00:05:28;99629.28;;;12.79;78.52
20424;BME280;10371;49.042;8.002;2023-04-28T00:06:28;99628.44;;;12.79;78.65
20424;BME280;10371;49.042;8.002;2023-04-28T00:07:29;99622.41;;;12.78;78.45
20424;BME280;10371;49.042;8.002;2023-04-28T00:08:30;99620.34;;;12.82;78.30
20424;BME280;10371;49.042;8.002;2023-04-28T00:09:31;99621.16;;;12.82;78.39
20424;BME280;10371;49.042;8.002;2023-04-28T00:10:31;99615.94;;;12.82;78.07
20424;BME280;10371;49.042;8.002;2023-04-28T00:11:31;99621.00;;;12.84;78.19
20424;BME280;10371;49.042;8.002;2023-04-28T00:12:31;99614.16;;;12.83;78.16
20424;BME280;10371;49.042;8.002;2023-04-28T00:13:32;99615.94;;;12.82;78.48
20424;BME280;10371;49.042;8.002;2023-04-28T00:14:32;99619.50;;;12.81;78.46
20424;BME280;10371;49.042;8.002;2023-04-28T00:15:32;99610.03;;;12.80;78.18
20424;BME280;10371;49.042;8.002;2023-04-28T00:16:33;99617.56;;;12.83;78.25
20424;BME280;10371;49.042;8.002;2023-04-28T00:17:33;99609.75;;;12.83;78.09
20424;BME280;10371;49.042;8.002;2023-04-28T00:18:33;99605.34;;;12.84;77.96
20424;BME280;10371;49.042;8.002;2023-04-28T00:19:34;99608.78;;;12.84;77.98
20424;BME280;10371;49.042;8.002;2023-04-28T00:20:34;99609.44;;;12.86;77.71
20424;BME280;10371;49.042;8.002;2023-04-28T00:21:35;99615.38;;;12.88;77.68
20424;BME280;10371;49.042;8.002;2023-04-28T00:22:35;99613.56;;;12.89;77.64
20424;BME280;10371;49.042;8.002;2023-04-28T00:23:35;99607.53;;;12.88;78.00
20424;BME280;10371;49.042;8.002;2023-04-28T00:24:35;99600.09;;;12.84;78.08
20424;BME280;10371;49.042;8.002;2023-04-28T00:25:36;99599.00;;;12.86;78.25
20424;BME280;10371;49.042;8.002;2023-04-28T00:26:36;99601.09;;;12.83;78.16
20424;BME280;10371;49.042;8.002;2023-04-28T00:27:36;99601.91;;;12.83;78.21
20424;BME280;10371;49.042;8.002;2023-04-28T00:28:36;99597.38;;;12.85;78.31
20424;BME280;10371;49.042;8.002;2023-04-28T00:29:37;99602.59;;;12.85;78.49
20424;BME280;10371;49.042;8.002;2023-04-28T00:30:37;99599.28;;;12.83;78.70
20424;BME280;10371;49.042;8.002;2023-04-28T00:31:37;99599.44;;;12.82;78.57
20424;BME280;10371;49.042;8.002;2023-04-28T00:32:37;99596.00;;;12.81;79.31
20424;BME280;10371;49.042;8.002;2023-04-28T00:33:39;99591.06;;;12.78;79.69
20424;BME280;10371;49.042;8.002;2023-04-28T00:34:39;99591.22;;;12.77;80.01
20424;BME280;10371;49.042;8.002;2023-04-28T00:35:39;99598.22;;;12.76;80.32
20424;BME280;10371;49.042;8.002;2023-04-28T00:36:41;99586.41;;;12.72;80.40
20424;BME280;10371;49.042;8.002;2023-04-28T00:37:41;99582.97;;;12.71;80.58
20424;BME280;10371;49.042;8.002;2023-04-28T00:38:42;99596.84;;;12.72;81.34
20424;BME280;10371;49.042;8.002;2023-04-28T00:39:42;99590.53;;;12.74;81.75
20424;BME280;10371;49.042;8.002;2023-04-28T00:40:46;99596.44;;;12.77;81.80
20424;BME280;10371;49.042;8.002;2023-04-28T00:41:46;99598.22;;;12.76;81.77
20424;BME280;10371;49.042;8.002;2023-04-28T00:42:46;99593.28;;;12.73;81.53
20424;BME280;10371;49.042;8.002;2023-04-28T00:43:47;99588.19;;;12.71;81.27
20424;BME280;10371;49.042;8.002;2023-04-28T00:44:48;99596.84;;;12.72;81.34
20424;BME280;10371;49.042;8.002;2023-04-28T00:45:49;99603.19;;;12.69;81.64
20424;BME280;10371;49.042;8.002;2023-04-28T00:46:49;99595.50;;;12.68;81.66
20424;BME280;10371;49.042;8.002;2023-04-28T00:47:50;99593.03;;;12.66;81.79
20424;BME280;10371;49.042;8.002;2023-04-28T00:48:50;99582.06;;;12.63;82.21
20424;BME280;10371;49.042;8.002;2023-04-28T00:49:50;99585.63;;;12.62;82.44
20424;BME280;10371;49.042;8.002;2023-04-28T00:50:52;99587.28;;;12.63;82.67
20424;BME280;10371;49.042;8.002;2023-04-28T00:51:52;99583.69;;;12.64;83.07
20424;BME280;10371;49.042;8.002;2023-04-28T00:52:53;99585.47;;;12.63;83.08
20424;BME280;10371;49.042;8.002;2023-04-28T00:53:54;99582.47;;;12.58;82.96
20424;BME280;10371;49.042;8.002;2023-04-28T00:54:54;99585.25;;;12.57;83.33
20424;BME280;10371;49.042;8.002;2023-04-28T00:55:55;99580.28;;;12.53;83.60
20424;BME280;10371;49.042;8.002;2023-04-28T00:56:56;99592.69;;;12.51;83.86
20424;BME280;10371;49.042;8.002;2023-04-28T00:57:56;99584.28;;;12.48;84.32
20424;BME280;10371;49.042;8.002;2023-04-28T00:58:57;99577.59;;;12.45;84.56
20424;BME280;10371;49.042;8.002;2023-04-28T00:59:57;99582.66;;;12.47;84.26
20424;BME280;10371;49.042;8.002;2023-04-28T01:01:02;99575.63;;;12.47;83.85
20424;BME280;10371;49.042;8.002;2023-04-28T01:02:04;99581.66;;;12.48;84.13
20424;BME280;10371;49.042;8.002;2023-04-28T01:03:05;99583.47;;;12.47;84.43
20424;BME280;10371;49.042;8.002;2023-04-28T01:04:05;99581.81;;;12.46;84.17
20424;BME280;10371;49.042;8.002;2023-04-28T01:05:07;99580.84;;;12.47;84.20
20424;BME280;10371;49.042;8.002;2023-04-28T01:06:08;99584.28;;;12.48;84.38
20424;BME280;10371;49.042;8.002;2023-04-28T01:07:09;99585.66;;;12.52;84.82
20424;BME280;10371;49.042;8.002;2023-04-28T01:08:10;99576.03;;;12.52;84.95
20424;BME280;10371;49.042;8.002;2023-04-28T01:09:11;99577.94;;;12.50;84.85
20424;BME280;10371;49.042;8.002;2023-04-28T01:10:11;99579.34;;;12.55;84.46
20424;BME280;10371;49.042;8.002;2023-04-28T01:11:11;99582.75;;;12.55;84.35
20424;BME280;10371;49.042;8.002;2023-04-28T01:12:13;99577.66;;;12.53;84.43
20424;BME280;10371;49.042;8.002;2023-04-28T01:13:13;99575.50;;;12.49;84.64
20424;BME280;10371;49.042;8.002;2023-04-28T01:14:13;99579.22;;;12.46;84.69
20424;BME280;10371;49.042;8.002;2023-04-28T01:15:18;99574.97;;;12.45;85.48
20424;BME280;10371;49.042;8.002;2023-04-28T01:16:19;99579.63;;;12.42;85.86
20424;BME280;10371;49.042;8.002;2023-04-28T01:17:19;99579.09;;;12.38;86.24
20424;BME280;10371;49.042;8.002;2023-04-28T01:18:20;99576.78;;;12.35;86.16
20424;BME280;10371;49.042;8.002;2023-04-28T01:19:21;99575.25;;;12.33;86.29
20424;BME280;10371;49.042;8.002;2023-04-28T01:20:22;99578.56;;;12.35;86.08
20424;BME280;10371;49.042;8.002;2023-04-28T01:21:26;99571.28;;;12.38;86.14
20424;BME280;10371;49.042;8.002;2023-04-28T01:22:29;99569.47;;;12.39;86.04
20424;BME280;10371;49.042;8.002;2023-04-28T01:23:29;99566.75;;;12.40;85.42
20424;BME280;10371;49.042;8.002;2023-04-28T01:24:30;99562.88;;;12.44;85.02
20424;BME280;10371;49.042;8.002;2023-04-28T01:25:30;99551.72;;;12.42;85.05
20424;BME280;10371;49.042;8.002;2023-04-28T01:26:30;99565.75;;;12.41;85.14
20424;BME280;10371;49.042;8.002;2023-04-28T01:27:30;99565.91;;;12.40;85.26
20424;BME280;10371;49.042;8.002;2023-04-28T01:28:31;99567.84;;;12.38;85.65
20424;BME280;10371;49.042;8.002;2023-04-28T01:29:31;99564.81;;;12.33;86.08
20424;BME280;10371;49.042;8.002;2023-04-28T01:30:31;99558.91;;;12.30;86.27
20424;BME280;10371;49.042;8.002;2023-04-28T01:31:32;99565.09;;;12.29;86.03
20424;BME280;10371;49.042;8.002;2023-04-28T01:32:32;99571.16;;;12.30;85.91
20424;BME280;10371;49.042;8.002;2023-04-28T01:33:32;99565.94;;;12.30;85.77
20424;BME280;10371;49.042;8.002;2023-04-28T01:34:32;99574.56;;;12.30;85.89
20424;BME280;10371;49.042;8.002;2023-04-28T01:35:33;99574.56;;;12.30;85.68
20424;BME280;10371;49.042;8.002;2023-04-28T01:36:33;99569.50;;;12.29;86.11
20424;BME280;10371;49.042;8.002;2023-04-28T01:37:33;99568.81;;;12.27;86.38
20424;BME280;10371;49.042;8.002;2023-04-28T01:38:33;99580.91;;;12.28;86.99
20424;BME280;10371;49.042;8.002;2023-04-28T01:39:34;99574.03;;;12.27;86.93
20424;BME280;10371;49.042;8.002;2023-04-28T01:40:35;99577.47;;;12.27;87.21
20424;BME280;10371;49.042;8.002;2023-04-28T01:41:35;99578.28;;;12.28;87.80
20424;BME280;10371;49.042;8.002;2023-04-28T01:42:35;99577.34;;;12.29;87.83
20424;BME280;10371;49.042;8.002;2023-04-28T01:43:36;99574.72;;;12.29;87.56
20424;BME280;10371;49.042;8.002;2023-04-28T01:44:36;99578.16;;;12.29;87.36
20424;BME280;10371;49.042;8.002;2023-04-28T01:45:36;99573.06;;;12.28;87.19
20424;BME280;10371;49.042;8.002;2023-04-28T01:46:36;99573.75;;;12.30;87.18
20424;BME280;10371;49.042;8.002;2023-04-28T01:47:37;99579.66;;;12.32;87.36
20424;BME280;10371;49.042;8.002;2023-04-28T01:48:38;99581.03;;;12.36;87.23
20424;BME280;10371;49.042;8.002;2023-04-28T01:49:38;99591.88;;;12.41;87.21
20424;BME280;10371;49.042;8.002;2023-04-28T01:50:38;99595.84;;;12.45;87.39
20424;BME280;10371;49.042;8.002;2023-04-28T01:51:38;99603.25;;;12.50;87.75
20424;BME280;10371;49.042;8.002;2023-04-28T01:52:39;99599.69;;;12.51;88.19
20424;BME280;10371;49.042;8.002;2023-04-28T01:53:39;99597.34;;;12.48;89.64
20424;BME280;10371;49.042;8.002;2023-04-28T01:54:40;99608.63;;;12.48;90.63
20424;BME280;10371;49.042;8.002;2023-04-28T01:55:40;99599.69;;;12.51;90.74
20424;BME280;10371;49.042;8.002;2023-04-28T01:56:40;99606.25;;;12.55;90.65
20424;BME280;10371;49.042;8.002;2023-04-28T01:57:40;99606.25;;;12.55;90.61
20424;BME280;10371;49.042;8.002;2023-04-28T01:58:41;99610.38;;;12.58;90.68
20424;BME280;10371;49.042;8.002;2023-04-28T01:59:41;99598.13;;;12.58;90.83
20424;BME280;10371;49.042;8.002;2023-04-28T02:00:41;99602.84;;;12.55;91.27
20424;BME280;10371;49.042;8.002;2023-04-28T02:01:42;99592.56;;;12.43;91.81
20424;BME280;10371;49.042;8.002;2023-04-28T02:02:42;99596.41;;;12.39;92.69
20424;BME280;10371;49.042;8.002;2023-04-28T02:03:42;99595.03;;;12.35;92.97
20424;BME280;10371;49.042;8.002;2023-04-28T02:04:42;99589.41;;;12.30;92.82
20424;BME280;10371;49.042;8.002;2023-04-28T02:05:43;99587.38;;;12.24;92.73
20424;BME280;10371;49.042;8.002;2023-04-28T02:06:43;99585.59;;;12.24;92.57
20424;BME280;10371;49.042;8.002;2023-04-28T02:07:43;99577.75;;;12.24;91.92
20424;BME280;10371;49.042;8.002;2023-04-28T02:08:44;99567.44;;;12.23;91.26
20424;BME280;10371;49.042;8.002;2023-04-28T02:09:44;99576.13;;;12.23;90.07
20424;BME280;10371;49.042;8.002;2023-04-28T02:10:45;99571.03;;;12.22;89.68
20424;BME280;10371;49.042;8.002;2023-04-28T02:11:45;99577.06;;;12.22;90.05
20424;BME280;10371;49.042;8.002;2023-04-28T02:12:45;99579.66;;;12.22;90.58
20424;BME280;10371;49.042;8.002;2023-04-28T02:13:46;99580.66;;;12.21;91.54
20424;BME280;10371;49.042;8.002;2023-04-28T02:14:46;99577.75;;;12.24;92.56
20424;BME280;10371;49.042;8.002;2023-04-28T02:15:46;99582.97;;;12.24;93.63
20424;BME280;10371;49.042;8.002;2023-04-28T02:16:47;99571.19;;;12.20;93.75
20424;BME280;10371;49.042;8.002;2023-04-28T02:17:47;99570.78;;;12.15;93.62
20424;BME280;10371;49.042;8.002;2023-04-28T02:18:47;99575.19;;;12.15;93.36
20424;BME280;10371;49.042;8.002;2023-04-28T02:19:53;99566.66;;;12.13;92.97
20424;BME280;10371;49.042;8.002;2023-04-28T02:20:53;99567.59;;;12.12;91.33
20424;BME280;10371;49.042;8.002;2023-04-28T02:21:53;99562.38;;;12.12;91.44
20424;BME280;10371;49.042;8.002;2023-04-28T02:22:54;99565.97;;;12.11;91.95
20424;BME280;10371;49.042;8.002;2023-04-28T02:23:54;99570.91;;;12.14;92.45
20424;BME280;10371;49.042;8.002;2023-04-28T02:24:55;99563.22;;;12.12;92.58
20424;BME280;10371;49.042;8.002;2023-04-28T02:26:01;99572.41;;;12.16;92.09
20424;BME280;10371;49.042;8.002;2023-04-28T02:27:03;99573.78;;;12.20;92.35
20424;BME280;10371;49.042;8.002;2023-04-28T02:28:04;99565.97;;;12.20;93.07
20424;BME280;10371;49.042;8.002;2023-04-28T02:29:04;99572.00;;;12.21;92.66
20424;BME280;10371;49.042;8.002;2023-04-28T02:30:05;99576.66;;;12.27;92.82
20424;BME280;10371;49.042;8.002;2023-04-28T02:31:07;99576.25;;;12.32;92.70
20424;BME280;10371;49.042;8.002;2023-04-28T02:32:08;99573.34;;;12.35;92.87
20424;BME280;10371;49.042;8.002;2023-04-28T02:33:08;99576.34;;;12.40;92.61
20424;BME280;10371;49.042;8.002;2023-04-28T02:34:09;99574.28;;;12.43;92.35
20424;BME280;10371;49.042;8.002;2023-04-28T02:35:09;99581.13;;;12.44;92.41
20424;BME280;10371;49.042;8.002;2023-04-28T02:36:09;99579.91;;;12.48;91.99
20424;BME280;10371;49.042;8.002;2023-04-28T02:37:10;99578.94;;;12.49;92.31
20424;BME280;10371;49.042;8.002;2023-04-28T02:38:10;99581.13;;;12.54;91.95
20424;BME280;10371;49.042;8.002;2023-04-28T02:39:11;99586.88;;;12.58;91.91
20424;BME280;10371;49.042;8.002;2023-04-28T02:40:11;99585.91;;;12.59;91.53
20424;BME280;10371;49.042;8.002;2023-04-28T02:41:12;99585.63;;;12.62;91.43
20424;BME280;10371;49.042;8.002;2023-04-28T02:42:14;99586.47;;;12.62;91.31
20424;BME280;10371;49.042;8.002;2023-04-28T02:43:14;99584.66;;;12.63;91.52
20424;BME280;10371;49.042;8.002;2023-04-28T02:44:15;99580.25;;;12.63;91.44
20424;BME280;10371;49.042;8.002;2023-04-28T02:45:15;99581.91;;;12.64;91.34
20424;BME280;10371;49.042;8.002;2023-04-28T02:46:15;99581.91;;;12.64;91.33
20424;BME280;10371;49.042;8.002;2023-04-28T02:47:16;99588.63;;;12.67;91.48
20424;BME280;10371;49.042;8.002;2023-04-28T02:48:16;99584.50;;;12.64;91.34
20424;BME280;10371;49.042;8.002;2023-04-28T02:49:16;99580.94;;;12.65;91.08
20424;BME280;10371;49.042;8.002;2023-04-28T02:50:17;99581.91;;;12.64;91.15
20424;BME280;10371;49.042;8.002;2023-04-28T02:51:17;99582.59;;;12.66;91.04
20424;BME280;10371;49.042;8.002;2023-04-28T02:52:17;99579.16;;;12.66;91.13
20424;BME280;10371;49.042;8.002;2023-04-28T02:53:19;99566.78;;;12.68;91.55
20424;BME280;10371;49.042;8.002;2023-04-28T02:54:19;99568.81;;;12.74;92.14
20424;BME280;10371;49.042;8.002;2023-04-28T02:55:28;99565.22;;;12.75;92.52
20424;BME280;10371;49.042;8.002;2023-04-28T02:56:28;99562.22;;;12.70;92.47
20424;BME280;10371;49.042;8.002;2023-04-28T02:57:29;99564.00;;;12.69;93.16
20424;BME280;10371;49.042;8.002;2023-04-28T02:58:29;99567.59;;;12.68;93.28
20424;BME280;10371;49.042;8.002;2023-04-28T02:59:30;99565.81;;;12.69;93.31
20424;BME280;10371;49.042;8.002;2023-04-28T03:00:30;99558.09;;;12.67;93.42
20424;BME280;10371;49.042;8.002;2023-04-28T03:01:30;99557.28;;;12.67;93.31
20424;BME280;10371;49.042;8.002;2023-04-28T03:02:30;99552.88;;;12.67;93.33
20424;BME280;10371;49.042;8.002;2023-04-28T03:03:31;99546.53;;;12.70;93.46
20424;BME280;10371;49.042;8.002;2023-04-28T03:04:31;99549.84;;;12.72;93.86
20424;BME280;10371;49.042;8.002;2023-04-28T03:05:31;99547.09;;;12.73;94.02
20424;BME280;10371;49.042;8.002;2023-04-28T03:06:32;99539.41;;;12.72;94.16
20424;BME280;10371;49.042;8.002;2023-04-28T03:07:32;99541.19;;;12.71;94.26
20424;BME280;10371;49.042;8.002;2023-04-28T03:08:33;99530.88;;;12.70;94.58
20424;BME280;10371;49.042;8.002;2023-04-28T03:09:33;99532.81;;;12.68;94.58
20424;BME280;10371;49.042;8.002;2023-04-28T03:10:33;99539.69;;;12.69;94.42
20424;BME280;10371;49.042;8.002;2023-04-28T03:11:34;99531.97;;;12.67;94.36
20424;BME280;10371;49.042;8.002;2023-04-28T03:12:34;99539.97;;;12.66;94.17
20424;BME280;10371;49.042;8.002;2023-04-28T03:13:35;99540.78;;;12.66;94.06
20424;BME280;10371;49.042;8.002;2023-04-28T03:14:35;99544.09;;;12.68;93.63
20424;BME280;10371;49.042;8.002;2023-04-28T03:15:35;99542.28;;;12.69;93.61
20424;BME280;10371;49.042;8.002;2023-04-28T03:16:37;99536.09;;;12.70;93.48
20424;BME280;10371;49.042;8.002;2023-04-28T03:17:37;99541.31;;;12.70;93.86
20424;BME280;10371;49.042;8.002;2023-04-28T03:18:38;99536.94;;;12.70;94.27
20424;BME280;10371;49.042;8.002;2023-04-28T03:19:38;99543.00;;;12.71;94.68
20424;BME280;10371;49.042;8.002;2023-04-28T03:20:38;99544.63;;;12.72;94.80
20424;BME280;10371;49.042;8.002;2023-04-28T03:21:38;99534.16;;;12.72;94.95
20424;BME280;10371;49.042;8.002;2023-04-28T03:22:39;99533.19;;;12.73;94.67
20424;BME280;10371;49.042;8.002;2023-04-28T03:23:39;99533.34;;;12.71;94.44
20424;BME280;10371;49.042;8.002;2023-04-28T03:24:39;99536.38;;;12.67;93.56
20424;BME280;10371;49.042;8.002;2023-04-28T03:25:40;99527.06;;;12.64;93.59
20424;BME280;10371;49.042;8.002;2023-04-28T03:26:40;99529.81;;;12.63;93.48
20424;BME280;10371;49.042;8.002;2023-04-28T03:27:41;99531.75;;;12.61;94.67
20424;BME280;10371;49.042;8.002;2023-04-28T03:28:41;99528.44;;;12.59;96.17
20424;BME280;10371;49.042;8.002;2023-04-28T03:29:41;99528.06;;;12.53;97.07
20424;BME280;10371;49.042;8.002;2023-04-28T03:30:41;99527.09;;;12.55;98.04
20424;BME280;10371;49.042;8.002;2023-04-28T03:31:42;99521.19;;;12.52;98.66
20424;BME280;10371;49.042;8.002;2023-04-28T03:32:42;99527.63;;;12.58;98.99
20424;BME280;10371;49.042;8.002;2023-04-28T03:33:42;99526.69;;;12.59;99.14
20424;BME280;10371;49.042;8.002;2023-04-28T03:34:44;99529.00;;;12.62;98.84
20424;BME280;10371;49.042;8.002;2023-04-28T03:35:45;99537.38;;;12.66;98.59
20424;BME280;10371;49.042;8.002;2023-04-28T03:36:45;99534.75;;;12.66;98.26
20424;BME280;10371;49.042;8.002;2023-04-28T03:37:46;99533.78;;;12.67;97.95
20424;BME280;10371;49.042;8.002;2023-04-28T03:38:46;99533.47;;;12.70;97.83
20424;BME280;10371;49.042;8.002;2023-04-28T03:39:47;99533.47;;;12.70;97.61
20424;BME280;10371;49.042;8.002;2023-04-28T03:40:47;99530.88;;;12.70;97.43
20424;BME280;10371;49.042;8.002;2023-04-28T03:41:47;99529.09;;;12.70;97.50
20424;BME280;10371;49.042;8.002;2023-04-28T03:42:47;99526.50;;;12.70;97.59
20424;BME280;10371;49.042;8.002;2023-04-28T03:43:48;99522.09;;;12.71;97.60
20424;BME280;10371;49.042;8.002;2023-04-28T03:44:48;99522.75;;;12.73;97.73
20424;BME280;10371;49.042;8.002;2023-04-28T03:45:48;99520.28;;;12.71;97.99
20424;BME280;10371;49.042;8.002;2023-04-28T03:46:49;99527.97;;;12.73;97.79
20424;BME280;10371;49.042;8.002;2023-04-28T03:47:49;99522.09;;;12.71;97.60
20424;BME280;10371;49.042;8.002;2023-04-28T03:48:49;99521.78;;;12.74;97.48
20424;BME280;10371;49.042;8.002;2023-04-28T03:49:50;99526.19;;;12.73;97.33
20424;BME280;10371;49.042;8.002;2023-04-28T03:50:51;99521.78;;;12.74;97.24
20424;BME280;10371;49.042;8.002;2023-04-28T03:51:51;99521.78;;;12.74;96.96
20424;BME280;10371;49.042;8.002;2023-04-28T03:52:52;99521.78;;;12.74;97.00
20424;BME280;10371;49.042;8.002;2023-04-28T03:53:52;99523.72;;;12.72;96.66
20424;BME280;10371;49.042;8.002;2023-04-28T03:54:52;99519.47;;;12.71;96.82
20424;BME280;10371;49.042;8.002;2023-04-28T03:55:53;99526.34;;;12.72;96.45
20424;BME280;10371;49.042;8.002;2023-04-28T03:56:53;99520.13;;;12.73;96.43
20424;BME280;10371;49.042;8.002;2023-04-28T03:57:53;99526.34;;;12.72;96.32
20424;BME280;10371;49.042;8.002;2023-04-28T03:58:54;99517.69;;;12.71;96.30
20424;BME280;10371;49.042;8.002;2023-04-28T03:59:54;99525.34;;;12.73;96.60
20424;BME280;10371;49.042;8.002;2023-04-28T04:00:54;99519.03;;;12.75;96.59
20424;BME280;10371;49.042;8.002;2023-04-28T04:01:55;99524.25;;;12.75;96.65
20424;BME280;10371;49.042;8.002;2023-04-28T04:02:55;99512.16;;;12.74;96.85
20424;BME280;10371;49.042;8.002;2023-04-28T04:03:55;99509.56;;;12.74;96.90
20424;BME280;10371;49.042;8.002;2023-04-28T04:04:55;99511.34;;;12.74;96.95
20424;BME280;10371;49.042;8.002;2023-04-28T04:05:56;99509.69;;;12.73;97.36
20424;BME280;10371;49.042;8.002;2023-04-28T04:06:56;99509.84;;;12.71;97.73
20424;BME280;10371;49.042;8.002;2023-04-28T04:07:57;99507.06;;;12.73;97.95
20424;BME280;10371;49.042;8.002;2023-04-28T04:08:58;99510.66;;;12.72;98.36
20424;BME280;10371;49.042;8.002;2023-04-28T04:09:59;99501.19;;;12.71;98.26
20424;BME280;10371;49.042;8.002;2023-04-28T04:10:59;99507.22;;;12.71;98.48
20424;BME280;10371;49.042;8.002;2023-04-28T04:12:00;99507.22;;;12.71;98.43
20424;BME280;10371;49.042;8.002;2023-04-28T04:13:00;99502.16;;;12.70;98.61
20424;BME280;10371;49.042;8.002;2023-04-28T04:14:00;99500.50;;;12.69;98.78
20424;BME280;10371;49.042;8.002;2023-04-28T04:15:00;99498.88;;;12.68;98.84
20424;BME280;10371;49.042;8.002;2023-04-28T04:16:01;99499.00;;;12.66;98.98
20424;BME280;10371;49.042;8.002;2023-04-28T04:17:01;99498.19;;;12.66;98.64
20424;BME280;10371;49.042;8.002;2023-04-28T04:18:02;99503.03;;;12.61;98.45
20424;BME280;10371;49.042;8.002;2023-04-28T04:19:02;99491.88;;;12.59;98.52
20424;BME280;10371;49.042;8.002;2023-04-28T04:20:02;99491.88;;;12.59;98.50
20424;BME280;10371;49.042;8.002;2023-04-28T04:21:03;99485.03;;;12.58;98.63
20424;BME280;10371;49.042;8.002;2023-04-28T04:22:03;99495.19;;;12.61;98.56
20424;BME280;10371;49.042;8.002;2023-04-28T04:23:03;99500.41;;;12.61;98.57
20424;BME280;10371;49.042;8.002;2023-04-28T04:24:04;99492.56;;;12.61;98.59
20424;BME280;10371;49.042;8.002;2023-04-28T04:25:05;99483.50;;;12.65;98.24
20424;BME280;10371;49.042;8.002;2023-04-28T04:26:05;99483.34;;;12.66;98.22
20424;BME280;10371;49.042;8.002;2023-04-28T04:27:05;99489.25;;;12.68;97.80
20424;BME280;10371;49.042;8.002;2023-04-28T04:28:06;99484.72;;;12.70;97.56
20424;BME280;10371;49.042;8.002;2023-04-28T04:29:07;99494.00;;;12.73;97.42
20424;BME280;10371;49.042;8.002;2023-04-28T04:30:07;99489.78;;;12.72;97.56
20424;BME280;10371;49.042;8.002;2023-04-28T04:31:08;99490.88;;;12.69;97.85
20424;BME280;10371;49.042;8.002;2023-04-28T04:32:08;99494.00;;;12.73;97.78
20424;BME280;10371;49.042;8.002;2023-04-28T04:33:08;99492.38;;;12.72;98.15
20424;BME280;10371;49.042;8.002;2023-04-28T04:34:08;99492.25;;;12.73;98.42
20424;BME280;10371;49.042;8.002;2023-04-28T04:35:10;99491.28;;;12.74;99.00
20424;BME280;10371;49.042;8.002;2023-04-28T04:36:10;99487.84;;;12.74;99.73
20424;BME280;10371;49.042;8.002;2023-04-28T04:37:10;99489.34;;;12.77;100.00
20424;BME280;10371;49.042;8.002;2023-04-28T04:38:11;99480.53;;;12.78;100.00
20424;BME280;10371;49.042;8.002;2023-04-28T04:39:12;99480.41;;;12.79;100.00
20424;BME280;10371;49.042;8.002;2023-04-28T04:40:12;99478.72;;;12.78;100.00
20424;BME280;10371;49.042;8.002;2023-04-28T04:41:12;99478.06;;;12.76;100.00
20424;BME280;10371;49.042;8.002;2023-04-28T04:42:12;99489.19;;;12.78;100.00
20424;BME280;10371;49.042;8.002;2023-04-28T04:43:13;99496.19;;;12.78;100.00
20424;BME280;10371;49.042;8.002;2023-04-28T04:44:13;99503.22;;;12.77;100.00
20424;BME280;10371;49.042;8.002;2023-04-28T04:45:13;99501.72;;;12.74;100.00
20424;BME280;10371;49.042;8.002;2023-04-28T04:46:13;99504.19;;;12.76;100.00
20424;BME280;10371;49.042;8.002;2023-04-28T04:47:14;99504.47;;;12.73;100.00
20424;BME280;10371;49.042;8.002;2023-04-28T04:48:14;99500.22;;;12.72;100.00
20424;BME280;10371;49.042;8.002;2023-04-28T04:49:14;99501.03;;;12.72;100.00
20424;BME280;10371;49.042;8.002;2023-04-28T04:50:15;99506.41;;;12.71;100.00
20424;BME280;10371;49.042;8.002;2023-04-28T04:51:16;99507.22;;;12.71;100.00
20424;BME280;10371;49.042;8.002;2023-04-28T04:52:16;99509.84;;;12.71;100.00
20424;BME280;10371;49.042;8.002;2023-04-28T04:53:17;99511.66;;;12.71;100.00
20424;BME280;10371;49.042;8.002;2023-04-28T04:54:17;99517.38;;;12.74;100.00
20424;BME280;10371;49.042;8.002;2023-04-28T04:55:17;99514.91;;;12.73;100.00
20424;BME280;10371;49.042;8.002;2023-04-28T04:56:18;99515.75;;;12.73;100.00
20424;BME280;10371;49.042;8.002;2023-04-28T04:57:18;99519.88;;;12.76;100.00
20424;BME280;10371;49.042;8.002;2023-04-28T04:58:18;99509.69;;;12.73;100.00
20424;BME280;10371;49.042;8.002;2023-04-28T04:59:19;99513.66;;;12.77;100.00
20424;BME280;10371;49.042;8.002;2023-04-28T05:00:20;99513.81;;;12.75;100.00
20424;BME280;10371;49.042;8.002;2023-04-28T05:01:20;99507.75;;;12.75;100.00
20424;BME280;10371;49.042;8.002;2023-04-28T05:02:21;99504.47;;;12.73;100.00
20424;BME280;10371;49.042;8.002;2023-04-28T05:03:21;99503.66;;;12.72;100.00
20424;BME280;10371;49.042;8.002;2023-04-28T05:04:21;99509.69;;;12.73;100.00
20424;BME280;10371;49.042;8.002;2023-04-28T05:05:22;99507.38;;;12.70;100.00
20424;BME280;10371;49.042;8.002;2023-04-28T05:06:22;99511.34;;;12.74;100.00
20424;BME280;10371;49.042;8.002;2023-04-28T05:07:24;99505.31;;;12.73;100.00
20424;BME280;10371;49.042;8.002;2023-04-28T05:08:25;99504.47;;;12.73;100.00
20424;BME280;10371;49.042;8.002;2023-04-28T05:09:25;99505.44;;;12.72;100.00
20424;BME280;10371;49.042;8.002;2023-04-28T05:10:26;99505.16;;;12.75;100.00
20424;BME280;10371;49.042;8.002;2023-04-28T05:11:26;99502.69;;;12.73;100.00
20424;BME280;10371;49.042;8.002;2023-04-28T05:12:26;99500.91;;;12.74;100.00
20424;BME280;10371;49.042;8.002;2023-04-28T05:13:27;99504.47;;;12.73;100.00
20424;BME280;10371;49.042;8.002;2023-04-28T05:14:27;99505.16;;;12.75;100.00
20424;BME280;10371;49.042;8.002;2023-04-28T05:15:27;99501.59;;;12.76;100.00
20424;BME280;10371;49.042;8.002;2023-04-28T05:16:28;99507.34;;;12.80;100.00
20424;BME280;10371;49.042;8.002;2023-04-28T05:17:28;99502.25;;;12.78;100.00
20424;BME280;10371;49.042;8.002;2023-04-28T05:18:28;99503.91;;;12.79;100.00
20424;BME280;10371;49.042;8.002;2023-04-28T05:19:29;99504.72;;;12.80;100.00
20424;BME280;10371;49.042;8.002;2023-04-28T05:20:29;99508.16;;;12.80;100.00